createdAt,value
2022-10-26T00:01:03.368Z,2.1
2022-10-26T00:02:55.189Z,2
2022-10-26T00:04:54.000Z,1.9
2022-10-26T00:06:53.881Z,1.8
2022-10-26T00:08:55.435Z,1.8
2022-10-26T00:10:56.823Z,1.8
2022-10-26T00:12:53.557Z,2.1
2022-10-26T00:14:53.431Z,1.6
2022-10-26T00:16:53.364Z,2
2022-10-26T00:18:53.217Z,1.9
2022-10-26T00:20:53.196Z,2.1
2022-10-26T00:22:52.988Z,2.1
2022-10-26T00:24:53.031Z,2
2022-10-26T00:26:52.880Z,2
2022-10-26T00:28:53.281Z,2
2022-10-26T00:30:52.628Z,1.9
2022-10-26T00:32:52.724Z,2.1
2022-10-26T00:34:52.358Z,2.2
2022-10-26T00:36:52.359Z,2.1
2022-10-26T00:38:54.304Z,1.8
2022-10-26T00:40:52.083Z,2.1
2022-10-26T00:42:52.093Z,2.1
2022-10-26T00:44:57.439Z,2
2022-10-26T00:46:51.699Z,2.2
2022-10-26T00:48:55.707Z,2.2
2022-10-26T00:50:53.401Z,2.2
2022-10-26T00:52:53.095Z,1.9
2022-10-26T00:54:52.608Z,2.4
2022-10-26T00:56:53.892Z,2
2022-10-26T00:58:51.518Z,2.4
2022-10-26T01:00:51.301Z,2.2
2022-10-26T01:02:54.320Z,2.1
2022-10-26T01:04:52.913Z,2.1
2022-10-26T01:06:52.525Z,2.4
2022-10-26T01:08:50.538Z,2.4
2022-10-26T01:10:51.081Z,2.2
2022-10-26T01:12:50.385Z,2.4
2022-10-26T01:14:50.018Z,2.3
2022-10-26T01:17:04.921Z,2.5
2022-10-26T01:19:02.812Z,2.5
2022-10-26T01:21:13.635Z,2.6
2022-10-26T01:22:57.826Z,2.5
2022-10-26T01:25:01.410Z,2.4
2022-10-26T01:27:19.074Z,2.5
2022-10-26T01:29:08.935Z,2.5
2022-10-26T01:30:49.512Z,2.8
2022-10-26T01:33:08.347Z,2.7
2022-10-26T01:34:55.884Z,2.8
2022-10-26T01:36:54.232Z,2.7
2022-10-26T01:38:56.900Z,2.5
2022-10-26T01:40:58.454Z,2.7
2022-10-26T01:42:50.977Z,3
2022-10-26T01:44:55.699Z,2.9
2022-10-26T01:46:51.058Z,2.8
2022-10-26T01:48:51.366Z,3
2022-10-26T01:50:52.983Z,3
2022-10-26T01:52:49.031Z,3.3
2022-10-26T01:54:47.608Z,3
2022-10-26T01:56:51.152Z,3.3
2022-10-26T01:59:10.241Z,3.4
2022-10-26T02:00:58.212Z,3.3
2022-10-26T02:02:59.969Z,3.6
2022-10-26T02:05:03.238Z,3.6
2022-10-26T02:06:57.735Z,3.4
2022-10-26T02:08:57.669Z,3.3
2022-10-26T02:11:00.468Z,3.4
2022-10-26T02:12:57.584Z,3.2
2022-10-26T02:14:50.152Z,3.7
2022-10-26T02:16:53.990Z,3.7
2022-10-26T02:18:54.718Z,3.9
2022-10-26T02:20:50.587Z,4
2022-10-26T02:22:49.672Z,3.6
2022-10-26T02:24:49.672Z,3.6
2022-10-26T02:26:49.181Z,3.9
2022-10-26T02:28:50.087Z,3.6
2022-10-26T02:30:47.389Z,4
2022-10-26T02:32:50.409Z,3.6
2022-10-26T02:34:48.838Z,3.9
2022-10-26T02:36:47.477Z,4
2022-10-26T02:38:46.873Z,4.1
2022-10-26T02:40:47.723Z,4.2
2022-10-26T02:42:46.437Z,4.1
2022-10-26T02:44:49.598Z,4.6
2022-10-26T02:46:44.858Z,4.4
2022-10-26T02:48:44.514Z,4.4
2022-10-26T02:50:57.163Z,4.1
2022-10-26T02:52:53.978Z,4.5
2022-10-26T02:54:52.404Z,4.1
2022-10-26T02:56:50.931Z,4.2
2022-10-26T02:58:49.069Z,4.1
2022-10-26T03:00:45.285Z,4.4
2022-10-26T03:02:48.404Z,4.4
2022-10-26T03:04:43.325Z,4.4
2022-10-26T03:06:51.810Z,4.5
2022-10-26T03:08:42.992Z,4.8
2022-10-26T03:10:44.474Z,4.1
2022-10-26T03:12:42.869Z,4.9
2022-10-26T03:14:42.862Z,4.5
2022-10-26T03:16:42.567Z,4.9
2022-10-26T03:18:42.460Z,4.5
2022-10-26T03:20:43.649Z,4.6
2022-10-26T03:22:42.211Z,4.5
2022-10-26T03:24:42.193Z,4.6
2022-10-26T03:26:42.032Z,4.8
2022-10-26T03:28:41.727Z,5.1
2022-10-26T03:30:41.899Z,4.6
2022-10-26T03:32:41.491Z,5.1
2022-10-26T03:34:41.401Z,5.1
2022-10-26T03:36:41.270Z,4.9
2022-10-26T03:38:47.040Z,4.5
2022-10-26T03:39:08.605Z,4.5
2022-10-26T03:40:40.964Z,5.3
2022-10-26T03:42:41.041Z,5
2022-10-26T03:44:40.793Z,5
2022-10-26T03:46:40.642Z,5.1
2022-10-26T03:48:40.429Z,5
2022-10-26T03:50:40.870Z,5
2022-10-26T03:52:41.951Z,5.1
2022-10-26T03:54:39.986Z,4.9
2022-10-26T03:56:39.938Z,5.1
2022-10-26T03:58:39.757Z,5.2
2022-10-26T04:02:22.449Z,5.5
2022-10-26T04:02:39.465Z,4.5
2022-10-26T04:04:39.941Z,5.3
2022-10-26T04:06:39.304Z,5.1
2022-10-26T04:08:39.063Z,5.1
2022-10-26T04:10:38.844Z,5.6
2022-10-26T04:12:38.996Z,4.8
2022-10-26T04:14:38.616Z,5.4
2022-10-26T04:16:38.631Z,5.7
2022-10-26T04:18:38.276Z,5.3
2022-10-26T04:20:39.220Z,5.6
2022-10-26T04:22:08.423Z,5.6
2022-10-26T04:22:10.691Z,5.6
2022-10-26T04:22:38.234Z,5.5
2022-10-26T04:24:37.930Z,5.5
2022-10-26T04:26:37.797Z,5.5
2022-10-26T04:28:37.855Z,6
2022-10-26T04:30:38.045Z,5.3
2022-10-26T04:32:37.367Z,5.5
2022-10-26T04:34:37.250Z,6.2
2022-10-26T04:36:37.147Z,5.9
2022-10-26T04:38:37.061Z,5.9
2022-10-26T04:40:36.900Z,10.7
2022-10-26T04:42:45.298Z,5.5
2022-10-26T04:44:36.631Z,5
2022-10-26T04:46:36.428Z,5
2022-10-26T04:48:36.540Z,4.8
2022-10-26T04:50:38.760Z,4.8
2022-10-26T04:52:36.508Z,5.3
2022-10-26T04:54:35.907Z,5.2
2022-10-26T04:56:36.024Z,5.3
2022-10-26T04:58:35.666Z,4.8
2022-10-26T05:00:35.599Z,4.9
2022-10-26T05:02:35.560Z,4.6
2022-10-26T05:04:35.352Z,5.3
2022-10-26T05:06:35.272Z,4.9
2022-10-26T05:08:35.009Z,4.8
2022-10-26T05:10:34.965Z,4.9
2022-10-26T05:12:34.903Z,5.2
2022-10-26T05:14:34.749Z,6.1
2022-10-26T05:16:34.514Z,4.7
2022-10-26T05:18:34.426Z,5
2022-10-26T05:20:35.352Z,8.7
2022-10-26T05:22:34.177Z,14
2022-10-26T05:24:34.062Z,8.2
2022-10-26T05:26:33.939Z,6.2
2022-10-26T05:28:33.780Z,5.9
2022-10-26T05:30:33.739Z,7.5
2022-10-26T05:32:33.518Z,8.3
2022-10-26T05:34:37.174Z,6.4
2022-10-26T05:36:33.273Z,6.7
2022-10-26T05:38:33.221Z,7.2
2022-10-26T05:40:33.085Z,6
2022-10-26T05:42:33.037Z,5.7
2022-10-26T05:44:32.879Z,5.7
2022-10-26T05:46:32.684Z,5.7
2022-10-26T05:48:32.655Z,4.8
2022-10-26T05:50:32.586Z,5.9
2022-10-26T05:52:38.310Z,6
2022-10-26T05:54:32.338Z,8
2022-10-26T05:56:35.629Z,6.5
2022-10-26T05:58:33.351Z,6.2
2022-10-26T06:00:32.717Z,6.6
2022-10-26T06:02:38.635Z,5.8
2022-10-26T06:04:36.592Z,6.2
2022-10-26T06:06:39.043Z,8
2022-10-26T06:08:32.113Z,9.1
2022-10-26T06:10:32.452Z,7.9
2022-10-26T06:12:32.114Z,7.1
2022-10-26T06:14:32.175Z,6.2
2022-10-26T06:16:41.343Z,6.9
2022-10-26T06:18:42.709Z,5.9
2022-10-26T06:20:43.242Z,5.6
2022-10-26T06:22:43.246Z,6.4
2022-10-26T06:24:42.233Z,5.8
2022-10-26T06:26:40.243Z,4.6
2022-10-26T06:28:41.195Z,4.1
2022-10-26T06:30:30.804Z,4
2022-10-26T06:32:31.197Z,4
2022-10-26T06:34:35.540Z,3.7
2022-10-26T06:36:31.625Z,2.9
2022-10-26T06:38:34.088Z,3.8
2022-10-26T06:40:32.634Z,3.3
2022-10-26T06:42:31.557Z,3.1
2022-10-26T06:44:30.752Z,3.4
2022-10-26T06:46:37.943Z,3.3
2022-10-26T06:48:43.819Z,3.5
2022-10-26T06:50:35.964Z,3
2022-10-26T06:52:36.772Z,3.2
2022-10-26T06:54:46.056Z,3
2022-10-26T06:56:31.174Z,3.4
2022-10-26T06:58:33.815Z,3.6
2022-10-26T07:02:29.845Z,3.4
2022-10-26T07:04:29.634Z,3.1
2022-10-26T07:06:29.768Z,3.2
2022-10-26T07:08:31.332Z,3.4
2022-10-26T07:10:29.215Z,3
2022-10-26T07:12:32.203Z,3.1
2022-10-26T07:14:29.237Z,3
2022-10-26T07:16:29.355Z,3.2
2022-10-26T07:18:28.973Z,3.2
2022-10-26T07:20:28.962Z,2.9
2022-10-26T07:22:28.903Z,2.7
2022-10-26T07:24:29.557Z,3.2
2022-10-26T07:26:28.866Z,3.9
2022-10-26T07:28:28.731Z,4.2
2022-10-26T07:30:29.664Z,2.9
2022-10-26T07:32:28.626Z,3.2
2022-10-26T07:34:28.566Z,4.1
2022-10-26T07:36:28.874Z,2.8
2022-10-26T07:38:28.438Z,3.4
2022-10-26T07:40:28.459Z,3.1
2022-10-26T07:42:28.417Z,3.6
2022-10-26T07:44:28.336Z,2.8
2022-10-26T07:46:28.696Z,2.7
2022-10-26T07:48:28.364Z,2.8
2022-10-26T07:50:29.081Z,2.7
2022-10-26T07:52:28.215Z,2.5
2022-10-26T07:54:28.189Z,2.6
2022-10-26T07:56:29.631Z,2.5
2022-10-26T07:58:28.166Z,2.9
2022-10-26T08:00:28.309Z,2.6
2022-10-26T08:02:28.065Z,2.5
2022-10-26T08:04:28.041Z,2.7
2022-10-26T08:06:28.071Z,2.7
2022-10-26T08:08:28.067Z,3.4
2022-10-26T08:10:27.979Z,3.2
2022-10-26T08:12:33.886Z,2.9
2022-10-26T08:14:38.400Z,3.1
2022-10-26T08:16:28.197Z,2.1
2022-10-26T08:18:28.263Z,2.1
2022-10-26T08:20:27.906Z,3
2022-10-26T08:22:28.845Z,2.9
2022-10-26T08:24:28.878Z,2.2
2022-10-26T08:26:27.912Z,2.5
2022-10-26T08:28:28.710Z,2.5
2022-10-26T08:30:27.943Z,2.5
2022-10-26T08:32:27.812Z,2.2
2022-10-26T08:34:27.850Z,2.6
2022-10-26T08:36:28.545Z,2.3
2022-10-26T08:38:28.699Z,2
2022-10-26T08:40:31.030Z,2.2
2022-10-26T08:42:32.222Z,2.4
2022-10-26T08:44:34.260Z,2.7
2022-10-26T08:46:32.416Z,2
2022-10-26T08:48:35.124Z,2.1
2022-10-26T08:50:32.052Z,2
2022-10-26T08:52:34.498Z,2
2022-10-26T08:54:36.384Z,2.5
2022-10-26T08:56:34.673Z,2.3
2022-10-26T08:58:37.110Z,2.6
2022-10-26T09:00:29.746Z,2.1
2022-10-26T09:02:28.117Z,1.9
2022-10-26T09:04:30.934Z,2
2022-10-26T09:06:39.012Z,2.1
2022-10-26T09:08:36.696Z,2.5
2022-10-26T09:10:38.561Z,2.6
2022-10-26T09:12:38.271Z,2.2
2022-10-26T09:14:39.204Z,3.1
2022-10-26T09:16:35.916Z,2.9
2022-10-26T09:18:42.343Z,2.2
2022-10-26T09:20:48.797Z,2.3
2022-10-26T09:22:36.732Z,2.5
2022-10-26T09:24:31.388Z,2.5
2022-10-26T09:26:35.776Z,2.4
2022-10-26T09:28:32.264Z,2.5
2022-10-26T09:30:28.423Z,2.5
2022-10-26T09:32:36.275Z,3
2022-10-26T09:34:36.467Z,2.6
2022-10-26T09:36:28.208Z,2.9
2022-10-26T09:38:30.775Z,2.6
2022-10-26T09:40:35.724Z,2.9
2022-10-26T09:42:38.090Z,2.8
2022-10-26T09:44:31.374Z,2.4
2022-10-26T09:46:32.904Z,2.9
2022-10-26T09:48:34.862Z,2.7
2022-10-26T09:50:33.097Z,3.1
2022-10-26T09:52:27.947Z,3.5
2022-10-26T09:54:27.766Z,3.1
2022-10-26T09:56:29.606Z,3.5
2022-10-26T09:58:30.971Z,3.9
2022-10-26T10:02:37.613Z,5.2
2022-10-26T10:04:31.085Z,4.1
2022-10-26T10:06:27.799Z,3.3
2022-10-26T10:08:27.834Z,3.2
2022-10-26T10:10:27.899Z,3.1
2022-10-26T10:12:27.830Z,3
2022-10-26T10:14:29.875Z,3.9
2022-10-26T10:16:27.901Z,3.5
2022-10-26T10:18:28.065Z,3.3
2022-10-26T10:20:31.743Z,3.6
2022-10-26T10:22:27.897Z,3.3
2022-10-26T10:24:30.085Z,3.6
2022-10-26T10:26:27.945Z,3.6
2022-10-26T10:28:29.021Z,3.6
2022-10-26T10:30:30.818Z,4.2
2022-10-26T10:32:30.078Z,4.4
2022-10-26T10:34:30.818Z,4.7
2022-10-26T10:36:29.553Z,4.9
2022-10-26T10:38:28.467Z,5.2
2022-10-26T10:40:30.234Z,4.8
2022-10-26T10:42:32.034Z,4.6
2022-10-26T10:44:30.317Z,5
2022-10-26T10:46:28.726Z,4.9
2022-10-26T10:48:29.046Z,5
2022-10-26T10:50:29.165Z,5.1
2022-10-26T10:52:30.528Z,5
2022-10-26T10:54:31.941Z,5.3
2022-10-26T10:56:33.537Z,4.8
2022-10-26T10:58:36.722Z,5.3
2022-10-26T11:00:30.362Z,5.3
2022-10-26T11:02:53.462Z,5.2
2022-10-26T11:04:44.269Z,6
2022-10-26T11:06:29.919Z,4.7
2022-10-26T11:08:34.896Z,4.7
2022-10-26T11:10:32.475Z,4.4
2022-10-26T11:12:32.315Z,5
2022-10-26T11:14:32.968Z,4.8
2022-10-26T11:16:32.672Z,4.9
2022-10-26T11:18:33.507Z,5.2
2022-10-26T11:20:29.226Z,5.3
2022-10-26T11:22:35.082Z,4.7
2022-10-26T11:24:34.935Z,5.5
2022-10-26T11:26:32.827Z,5.2
2022-10-26T11:28:38.739Z,4.7
2022-10-26T11:30:33.231Z,4.9
2022-10-26T11:32:34.269Z,5
2022-10-26T11:34:37.078Z,5.2
2022-10-26T11:36:32.347Z,5
2022-10-26T11:38:46.298Z,5
2022-10-26T11:40:39.395Z,5.3
2022-10-26T11:42:39.777Z,4.7
2022-10-26T11:44:35.005Z,4.9
2022-10-26T11:46:34.859Z,5.3
2022-10-26T11:48:36.906Z,4.8
2022-10-26T11:50:32.999Z,4.6
2022-10-26T11:52:37.542Z,5
2022-10-26T11:54:33.598Z,4.9
2022-10-26T11:56:35.119Z,4.9
2022-10-26T11:58:31.820Z,4.8
2022-10-26T12:00:30.503Z,4.9
2022-10-26T12:02:29.795Z,4.7
2022-10-26T12:04:33.078Z,4.7
2022-10-26T12:06:32.132Z,4.4
2022-10-26T12:08:34.993Z,5
2022-10-26T12:10:31.354Z,4.5
2022-10-26T12:12:38.160Z,4.4
2022-10-26T12:14:38.639Z,5.7
2022-10-26T12:16:49.329Z,4.9
2022-10-26T12:18:54.391Z,4.8
2022-10-26T12:20:53.287Z,5
2022-10-26T12:22:33.269Z,5.2
2022-10-26T12:24:30.846Z,4.4
2022-10-26T12:26:49.441Z,5.2
2022-10-26T12:28:43.829Z,5
2022-10-26T12:30:31.301Z,5.9
2022-10-26T12:32:49.901Z,6.3
2022-10-26T12:34:57.445Z,5.4
2022-10-26T12:36:47.373Z,6.1
2022-10-26T12:38:57.548Z,5.9
2022-10-26T12:40:44.212Z,5
2022-10-26T12:42:29.571Z,5.4
2022-10-26T12:44:35.339Z,5.4
2022-10-26T12:46:39.973Z,6.8
2022-10-26T12:48:39.940Z,5.3
2022-10-26T12:50:29.601Z,5.1
2022-10-26T12:52:37.551Z,4
2022-10-26T12:54:39.588Z,4.8
2022-10-26T12:56:34.977Z,4.6
2022-10-26T12:58:49.124Z,4.9
2022-10-26T13:00:32.106Z,4.7
2022-10-26T13:02:45.156Z,4.9
2022-10-26T13:04:58.347Z,4.6
2022-10-26T13:06:45.040Z,4.3
2022-10-26T13:08:39.994Z,4.5
2022-10-26T13:10:29.981Z,4.1
2022-10-26T13:12:38.101Z,4.2
2022-10-26T13:14:35.772Z,4.2
2022-10-26T13:16:30.080Z,4.4
2022-10-26T13:18:29.908Z,4.5
2022-10-26T13:20:31.090Z,4.6
2022-10-26T13:22:31.189Z,4.2
2022-10-26T13:24:33.451Z,4.2
2022-10-26T13:26:31.212Z,4.3
2022-10-26T13:28:33.870Z,4.6
2022-10-26T13:30:43.022Z,4.3
2022-10-26T13:32:30.162Z,4.3
2022-10-26T13:34:32.370Z,4.1
2022-10-26T13:36:35.774Z,4.7
2022-10-26T13:38:33.814Z,4.6
2022-10-26T13:40:30.068Z,4.9
2022-10-26T13:42:41.886Z,5.4
2022-10-26T13:44:38.244Z,6
2022-10-26T13:46:34.012Z,6.1
2022-10-26T13:48:36.768Z,5.1
2022-10-26T13:50:37.009Z,6.4
2022-10-26T13:52:35.080Z,6.3
2022-10-26T13:54:35.433Z,6.3
2022-10-26T13:56:33.582Z,6.4
2022-10-26T13:58:36.418Z,6
2022-10-26T14:00:30.141Z,5.4
2022-10-26T14:02:29.681Z,5.4
2022-10-26T14:04:29.587Z,5.4
2022-10-26T14:06:33.590Z,6
2022-10-26T14:08:29.584Z,6.5
2022-10-26T14:10:33.994Z,6
2022-10-26T14:12:30.118Z,5.6
2022-10-26T14:14:32.706Z,5
2022-10-26T14:16:32.278Z,6
2022-10-26T14:18:31.064Z,7.3
2022-10-26T14:20:31.332Z,8.3
2022-10-26T14:22:29.782Z,8.3
2022-10-26T14:24:46.290Z,8.3
2022-10-26T14:26:37.157Z,8.4
2022-10-26T14:28:31.685Z,8.9
2022-10-26T14:30:31.964Z,9.4
2022-10-26T14:32:31.343Z,9.1
2022-10-26T14:34:29.529Z,11.4
2022-10-26T14:36:36.080Z,11.5
2022-10-26T14:38:37.166Z,8.9
2022-10-26T14:40:33.660Z,8.4
2022-10-26T14:42:32.745Z,8.9
2022-10-26T14:44:30.000Z,8.6
2022-10-26T14:46:35.052Z,6.7
2022-10-26T14:48:31.802Z,7.6
2022-10-26T14:50:30.530Z,6.5
2022-10-26T14:52:31.984Z,5
2022-10-26T14:54:30.088Z,4.4
2022-10-26T14:56:39.315Z,4.5
2022-10-26T14:58:30.545Z,4.4
2022-10-26T15:00:29.718Z,3.9
2022-10-26T15:02:30.049Z,4
2022-10-26T15:04:33.454Z,4
2022-10-26T15:06:36.274Z,4.2
2022-10-26T15:08:56.284Z,3.6
2022-10-26T15:10:46.050Z,4
2022-10-26T15:12:32.935Z,4.4
2022-10-26T15:14:30.256Z,3.8
2022-10-26T15:16:33.305Z,4
2022-10-26T15:18:34.518Z,3.5
2022-10-26T15:20:30.367Z,3.8
2022-10-26T15:22:31.997Z,3.6
2022-10-26T15:24:37.767Z,3.1
2022-10-26T15:26:29.955Z,3.6
2022-10-26T15:28:31.911Z,3.6
2022-10-26T15:30:29.383Z,3.9
2022-10-26T15:32:31.255Z,3.5
2022-10-26T15:34:29.231Z,3.6
2022-10-26T15:36:30.420Z,4.5
2022-10-26T15:38:31.889Z,4
2022-10-26T15:40:31.284Z,3.7
2022-10-26T15:42:29.176Z,4.5
2022-10-26T15:44:29.149Z,4.1
2022-10-26T15:46:31.874Z,3.9
2022-10-26T15:48:31.400Z,3.9
2022-10-26T15:50:29.049Z,3.6
2022-10-26T15:52:30.554Z,3.6
2022-10-26T15:54:29.002Z,3.5
2022-10-26T15:56:30.460Z,3.2
2022-10-26T15:58:30.981Z,4
2022-10-26T16:00:28.932Z,4.7
2022-10-26T16:02:28.888Z,4
2022-10-26T16:04:28.763Z,4.3
2022-10-26T16:06:31.542Z,4.6
2022-10-26T16:08:30.709Z,3.6
2022-10-26T16:10:28.699Z,3.5
2022-10-26T16:12:28.592Z,3.4
2022-10-26T16:14:33.361Z,3.7
2022-10-26T16:16:28.639Z,3.6
2022-10-26T16:18:28.510Z,3.8
2022-10-26T16:20:28.481Z,3.3
2022-10-26T16:22:28.411Z,3.5
2022-10-26T16:24:30.214Z,3
2022-10-26T16:26:28.322Z,3.1
2022-10-26T16:28:28.917Z,3.2
2022-10-26T16:30:30.522Z,3.4
2022-10-26T16:32:28.228Z,3.5
2022-10-26T16:34:28.139Z,3.5
2022-10-26T16:36:28.071Z,3.4
2022-10-26T16:38:29.763Z,3.3
2022-10-26T16:40:28.007Z,3.2
2022-10-26T16:42:30.252Z,3.1
2022-10-26T16:44:27.953Z,3
2022-10-26T16:46:27.997Z,3
2022-10-26T16:48:27.864Z,3.4
2022-10-26T16:50:29.295Z,3.2
2022-10-26T16:52:27.787Z,3.1
2022-10-26T16:54:27.733Z,3.2
2022-10-26T16:56:29.519Z,3.1
2022-10-26T16:58:27.621Z,3.3
2022-10-26T17:00:27.636Z,3.3
2022-10-26T17:02:27.724Z,3.4
2022-10-26T17:04:27.466Z,3.5
2022-10-26T17:06:27.458Z,3.2
2022-10-26T17:08:28.436Z,3.3
2022-10-26T17:10:27.349Z,3.9
2022-10-26T17:14:27.244Z,3.4
2022-10-26T17:16:27.325Z,3.4
2022-10-26T17:18:27.213Z,3.7
2022-10-26T17:20:27.117Z,3.7
2022-10-26T17:22:27.083Z,3.4
2022-10-26T17:24:27.092Z,3.3
2022-10-26T17:26:27.677Z,3.5
2022-10-26T17:28:26.889Z,3
2022-10-26T17:30:31.582Z,3.5
2022-10-26T17:32:26.788Z,3.2
2022-10-26T17:34:26.986Z,3.1
2022-10-26T17:36:26.854Z,3
2022-10-26T17:38:29.398Z,2.9
2022-10-26T17:40:26.963Z,3.4
2022-10-26T17:42:26.698Z,2.9
2022-10-26T17:44:26.960Z,2.9
2022-10-26T17:46:26.557Z,3.5
2022-10-26T17:48:27.003Z,3.2
2022-10-26T17:50:26.429Z,3.2
2022-10-26T17:52:26.377Z,3.5
2022-10-26T17:54:26.352Z,3.1
2022-10-26T17:56:28.895Z,3.5
2022-10-26T17:58:26.374Z,3.9
2022-10-26T18:00:26.171Z,3.3
2022-10-26T18:02:26.642Z,3.4
2022-10-26T18:04:26.222Z,3.6
2022-10-26T18:06:26.108Z,3.7
2022-10-26T18:08:26.141Z,3.3
2022-10-26T18:10:37.600Z,3.5
2022-10-26T18:12:25.856Z,3.7
2022-10-26T18:14:25.814Z,3.4
2022-10-26T18:16:26.910Z,3.5
2022-10-26T18:18:25.676Z,3.2
2022-10-26T18:20:25.713Z,3.4
2022-10-26T18:22:25.551Z,3.7
2022-10-26T18:24:25.574Z,3.2
2022-10-26T18:26:26.925Z,3.5
2022-10-26T18:28:25.360Z,3.2
2022-10-26T18:30:25.558Z,3.3
2022-10-26T18:32:25.308Z,3
2022-10-26T18:34:25.300Z,3.5
2022-10-26T18:36:26.602Z,3.4
2022-10-26T18:38:25.243Z,3.2
2022-10-26T18:40:25.050Z,3.2
2022-10-26T18:42:25.081Z,3.3
2022-10-26T18:44:24.958Z,3.5
2022-10-26T18:46:26.388Z,3.6
2022-10-26T18:48:24.815Z,3.2
2022-10-26T18:50:24.648Z,3.3
2022-10-26T18:52:25.504Z,3.4
2022-10-26T18:54:27.194Z,3.2
2022-10-26T18:56:24.909Z,4
2022-10-26T18:58:24.471Z,3.2
2022-10-26T19:00:24.468Z,3.3
2022-10-26T19:02:24.403Z,3.6
2022-10-26T19:04:24.312Z,3.6
2022-10-26T19:06:26.631Z,3.3
2022-10-26T19:08:27.816Z,3.5
2022-10-26T19:10:24.249Z,3.3
2022-10-26T19:12:24.016Z,3.6
2022-10-26T19:14:24.108Z,3.6
2022-10-26T19:16:45.716Z,3.5
2022-10-26T19:18:23.831Z,3.7
2022-10-26T19:20:23.837Z,3.7
2022-10-26T19:22:23.756Z,3.7
2022-10-26T19:24:23.637Z,3.5
2022-10-26T19:26:27.982Z,3.4
2022-10-26T19:28:23.782Z,4
2022-10-26T19:30:23.428Z,3.8
2022-10-26T19:32:26.255Z,4
2022-10-26T19:34:23.317Z,4
2022-10-26T19:36:23.526Z,3.4
2022-10-26T19:38:23.606Z,3.5
2022-10-26T19:40:23.322Z,3.4
2022-10-26T19:42:23.146Z,3.8
2022-10-26T19:44:25.382Z,3.5
2022-10-26T19:46:25.272Z,3.6
2022-10-26T19:48:23.003Z,3.7
2022-10-26T19:50:22.947Z,3.4
2022-10-26T19:52:22.784Z,3.6
2022-10-26T19:54:22.699Z,3.7
2022-10-26T19:56:22.624Z,3.6
2022-10-26T19:58:23.521Z,3.4
2022-10-26T20:00:22.537Z,3.8
2022-10-26T20:02:22.541Z,3.8
2022-10-26T20:04:22.526Z,3.6
2022-10-26T20:06:22.386Z,3.8
2022-10-26T20:08:23.155Z,3.4
2022-10-26T20:10:22.795Z,3.5
2022-10-26T20:12:22.180Z,3.4
2022-10-26T20:14:22.164Z,3.6
2022-10-26T20:16:21.940Z,3.4
2022-10-26T20:18:22.106Z,3.6
2022-10-26T20:20:22.299Z,4
2022-10-26T20:22:21.738Z,3.4
2022-10-26T20:24:22.109Z,4.1
2022-10-26T20:26:23.363Z,4.1
2022-10-26T20:28:21.621Z,3.5
2022-10-26T20:30:21.438Z,3.8
2022-10-26T20:32:21.342Z,3.6
2022-10-26T20:34:21.324Z,3.9
2022-10-26T20:36:21.354Z,4.4
2022-10-26T20:38:21.669Z,4
2022-10-26T20:40:21.989Z,4.3
2022-10-26T20:42:23.841Z,3.9
2022-10-26T20:44:26.359Z,4
2022-10-26T20:46:23.675Z,3.7
2022-10-26T20:48:21.448Z,3.8
2022-10-26T20:50:22.456Z,3.7
2022-10-26T20:52:36.647Z,3.8
2022-10-26T20:54:25.376Z,3.7
2022-10-26T20:56:23.919Z,3.4
2022-10-26T20:58:31.397Z,3.7
2022-10-26T21:00:20.648Z,3.4
2022-10-26T21:02:20.418Z,3.7
2022-10-26T21:04:20.040Z,3.6
2022-10-26T21:06:20.615Z,3.3
2022-10-26T21:08:20.047Z,3.2
2022-10-26T21:10:19.775Z,3.5
2022-10-26T21:12:19.710Z,3.3
2022-10-26T21:14:19.626Z,3.6
2022-10-26T21:16:19.635Z,3.5
2022-10-26T21:18:19.511Z,3.5
2022-10-26T21:20:19.565Z,3.4
2022-10-26T21:22:19.337Z,3.2
2022-10-26T21:24:19.213Z,3.5
2022-10-26T21:26:19.234Z,3.3
2022-10-26T21:28:19.078Z,3.3
2022-10-26T21:30:19.214Z,3
2022-10-26T21:32:18.963Z,3.3
2022-10-26T21:34:18.792Z,3.6
2022-10-26T21:36:18.716Z,3.2
2022-10-26T21:38:18.868Z,3.2
2022-10-26T21:40:18.535Z,3.6
2022-10-26T21:42:18.894Z,3.5
2022-10-26T21:44:40.526Z,3.3
2022-10-26T21:46:19.843Z,3.2
2022-10-26T21:48:18.192Z,3.5
2022-10-26T21:50:18.421Z,3.4
2022-10-26T21:52:18.029Z,3.4
2022-10-26T21:54:18.007Z,3.5
2022-10-26T21:56:20.020Z,3.6
2022-10-26T21:58:17.855Z,3.3
2022-10-26T22:00:17.696Z,3.5
2022-10-26T22:02:17.828Z,3.6
2022-10-26T22:04:17.479Z,3.7
2022-10-26T22:08:17.332Z,3.3
2022-10-26T22:10:17.171Z,3.6
2022-10-26T22:12:17.237Z,3.4
2022-10-26T22:14:18.520Z,3.6
2022-10-26T22:16:19.269Z,3.6
2022-10-26T22:18:16.903Z,3.4
2022-10-26T22:20:16.942Z,3.5
2022-10-26T22:22:16.749Z,3.3
2022-10-26T22:24:16.774Z,3.8
2022-10-26T22:26:18.872Z,3.5
2022-10-26T22:28:16.457Z,3.3
2022-10-26T22:30:16.324Z,3.4
2022-10-26T22:32:16.429Z,3.6
2022-10-26T22:34:16.489Z,3.4
2022-10-26T22:36:17.617Z,3.6
2022-10-26T22:38:16.068Z,3.3
2022-10-26T22:40:16.108Z,3.6
2022-10-26T22:42:15.692Z,3.1
2022-10-26T22:44:15.531Z,3.5
2022-10-26T22:46:17.477Z,3.5
2022-10-26T22:48:15.401Z,3.6
2022-10-26T22:50:15.486Z,3
2022-10-26T22:52:15.176Z,3.8
2022-10-26T22:54:15.054Z,3.5
2022-10-26T22:56:15.036Z,3.2
2022-10-26T22:58:15.066Z,3.2
2022-10-26T23:00:15.915Z,3.6
2022-10-26T23:02:14.907Z,3
2022-10-26T23:04:14.574Z,3.3
2022-10-26T23:06:16.298Z,3.2
2022-10-26T23:08:14.469Z,3.6
2022-10-26T23:10:14.269Z,3.4
2022-10-26T23:12:14.136Z,3.3
2022-10-26T23:14:14.051Z,3.7
2022-10-26T23:16:15.933Z,3.5
2022-10-26T23:18:13.833Z,3.5
2022-10-26T23:20:13.832Z,3.9
2022-10-26T23:22:13.649Z,3.5
2022-10-26T23:24:13.530Z,3.4
2022-10-26T23:26:16.026Z,3.3
2022-10-26T23:28:13.353Z,3.3
2022-10-26T23:30:13.538Z,3.3
2022-10-26T23:32:13.089Z,3.3
2022-10-26T23:34:12.974Z,3.4
2022-10-26T23:36:12.998Z,3.7
2022-10-26T23:38:12.821Z,3.5
2022-10-26T23:40:12.770Z,3.4
2022-10-26T23:42:12.617Z,3.5
2022-10-26T23:44:12.504Z,2.9
2022-10-26T23:46:12.485Z,3.5
2022-10-26T23:48:12.448Z,3.4
2022-10-26T23:50:12.450Z,3.5
2022-10-26T23:52:12.203Z,3.4
2022-10-26T23:54:12.060Z,3.3
2022-10-26T23:56:11.965Z,3.6
2022-10-26T23:58:12.932Z,3.3
